Time;durP1;ratioP1;P1;durP2;ratioP2;P2;SDS_P1;SDS_P2;PMS_P1;PMS_P2;Temp;Humidity;BMP_temperature;BMP_pressure;BME280_temperature;BME280_humidity;BME280_pressure;Samples;Min_cycle;Max_cycle;Signal;HPM_P1;HPM_P2
2023/02/13 00:00:22;;;;;;;23.90;14.77;;;;;;;;;;5038369;28;20033;-76
2023/02/13 00:02:48;;;;;;;24.07;14.57;;;;;;;;;;5041761;28;20044;-77
2023/02/13 00:05:14;;;;;;;26.27;15.83;;;;;;;;;;5023216;28;20383;-77
2023/02/13 00:07:40;;;;;;;26.33;14.87;;;;;;;;;;5041924;28;20523;-76
2023/02/13 00:10:08;;;;;;;24.40;14.77;;;;;;;;;;5027286;28;20101;-76
2023/02/13 00:12:35;;;;;;;26.00;15.10;;;;;;;;;;5042150;28;20025;-76
2023/02/13 00:15:01;;;;;;;23.97;14.83;;;;;;;;;;5040650;28;20040;-75
2023/02/13 00:17:27;;;;;;;26.30;15.27;;;;;;;;;;5041300;28;20025;-76
2023/02/13 00:19:53;;;;;;;26.07;15.57;;;;;;;;;;5042461;28;20056;-77
2023/02/13 00:22:19;;;;;;;25.77;16.07;;;;;;;;;;5041589;28;20437;-75
2023/02/13 00:24:45;;;;;;;25.97;16.03;;;;;;;;;;5042836;28;20030;-76
2023/02/13 00:27:11;;;;;;;26.70;17.07;;;;;;;;;;5043287;28;20446;-76
2023/02/13 00:29:37;;;;;;;27.17;16.17;;;;;;;;;;5041684;28;20037;-76
2023/02/13 00:32:04;;;;;;;25.93;15.17;;;;;;;;;;5026059;28;20102;-76
2023/02/13 00:34:30;;;;;;;27.50;15.67;;;;;;;;;;5042861;28;20025;-76
2023/02/13 00:36:56;;;;;;;26.43;16.10;;;;;;;;;;5026752;28;20049;-76
2023/02/13 00:39:22;;;;;;;27.03;15.53;;;;;;;;;;5043357;28;20522;-76
2023/02/13 00:41:50;;;;;;;27.93;16.40;;;;;;;;;;5046216;28;20044;-76
2023/02/13 00:44:21;;;;;;;23.23;14.80;;;;;;;;;;5028804;28;20037;-77
2023/02/13 00:46:51;;;;;;;24.73;14.97;;;;;;;;;;5042013;28;20042;-76
2023/02/13 00:49:17;;;;;;;27.13;14.73;;;;;;;;;;5041363;28;20112;-76
2023/02/13 00:51:43;;;;;;;24.77;14.63;;;;;;;;;;5041472;28;20120;-76
2023/02/13 00:54:12;;;;;;;26.00;14.33;;;;;;;;;;5029769;28;20037;-77
2023/02/13 00:56:38;;;;;;;22.90;13.97;;;;;;;;;;5043808;28;20025;-76
2023/02/13 00:59:04;;;;;;;25.30;14.57;;;;;;;;;;5040656;28;20033;-77
2023/02/13 01:01:30;;;;;;;23.23;14.30;;;;;;;;;;5031545;28;20041;-77
2023/02/13 01:03:58;;;;;;;20.57;13.13;;;;;;;;;;5025441;28;20033;-76
2023/02/13 01:06:27;;;;;;;24.87;13.67;;;;;;;;;;5042322;28;20033;-77
2023/02/13 01:08:53;;;;;;;20.50;13.20;;;;;;;;;;5029504;28;20049;-75
2023/02/13 01:11:19;;;;;;;24.50;14.37;;;;;;;;;;5026995;28;20068;-77
2023/02/13 01:13:45;;;;;;;19.87;13.27;;;;;;;;;;5024687;28;20465;-76
2023/02/13 01:16:11;;;;;;;22.20;12.97;;;;;;;;;;5042330;28;20041;-77
2023/02/13 01:18:38;;;;;;;23.47;13.20;;;;;;;;;;5042322;28;20033;-76
2023/02/13 01:21:06;;;;;;;21.93;13.43;;;;;;;;;;5039771;28;20117;-76
2023/02/13 01:23:39;;;;;;;22.37;13.67;;;;;;;;;;5043117;28;20506;-76
2023/02/13 01:26:05;;;;;;;20.37;12.90;;;;;;;;;;5041163;28;20026;-76
2023/02/13 01:28:31;;;;;;;18.83;11.87;;;;;;;;;;5025723;28;20178;-76
2023/02/13 01:30:58;;;;;;;20.53;12.60;;;;;;;;;;5040854;28;20108;-77
2023/02/13 01:33:24;;;;;;;19.77;12.23;;;;;;;;;;5027648;28;20500;-76
2023/02/13 01:35:51;;;;;;;18.90;12.23;;;;;;;;;;5026705;28;20356;-75
2023/02/13 01:38:17;;;;;;;19.13;12.70;;;;;;;;;;5041422;28;20076;-77
2023/02/13 01:40:47;;;;;;;19.73;12.00;;;;;;;;;;5040927;28;20064;-76
2023/02/13 01:43:13;;;;;;;18.90;12.40;;;;;;;;;;5026818;28;20036;-77
2023/02/13 01:45:39;;;;;;;17.97;11.63;;;;;;;;;;5024538;28;20037;-76
2023/02/13 01:48:07;;;;;;;18.87;11.80;;;;;;;;;;5041618;28;20044;-76
2023/02/13 01:50:39;;;;;;;17.37;11.53;;;;;;;;;;5042150;28;20034;-76
2023/02/13 01:53:07;;;;;;;18.65;11.48;;;;;;;;;;5042379;28;20025;-76
2023/02/13 01:55:35;;;;;;;18.40;11.13;;;;;;;;;;5027012;28;20098;-75
2023/02/13 01:58:04;;;;;;;19.30;12.63;;;;;;;;;;5039120;28;20080;-76
2023/02/13 02:00:30;;;;;;;19.17;11.93;;;;;;;;;;5023696;28;20591;-75
2023/02/13 02:02:59;;;;;;;17.23;11.23;;;;;;;;;;5028164;28;20018;-77
2023/02/13 02:05:26;;;;;;;17.30;11.77;;;;;;;;;;5040390;28;20036;-76
2023/02/13 02:07:56;;;;;;;17.60;11.97;;;;;;;;;;5040787;28;20028;-77
2023/02/13 02:10:22;;;;;;;18.70;11.90;;;;;;;;;;5025221;28;20041;-77
2023/02/13 02:13:03;;;;;;;15.33;10.40;;;;;;;;;;5041535;28;20616;-76
2023/02/13 02:15:29;;;;;;;15.47;11.03;;;;;;;;;;5040454;28;20451;-76
2023/02/13 02:17:55;;;;;;;18.00;12.17;;;;;;;;;;5040006;28;20037;-75
2023/02/13 02:20:37;;;;;;;18.80;12.17;;;;;;;;;;5039149;28;20099;-76
2023/02/13 02:23:03;;;;;;;19.07;11.57;;;;;;;;;;5041253;28;20025;-76
2023/02/13 02:25:43;;;;;;;18.63;11.60;;;;;;;;;;5024073;28;20025;-77
2023/02/13 02:28:21;;;;;;;18.60;11.93;;;;;;;;;;5039836;28;20057;-76
2023/02/13 02:31:06;;;;;;;15.57;10.93;;;;;;;;;;5040620;28;20120;-76
2023/02/13 02:33:39;;;;;;;18.93;11.77;;;;;;;;;;5041209;28;20049;-76
2023/02/13 02:36:08;;;;;;;18.03;11.47;;;;;;;;;;5022517;28;20064;-76
2023/02/13 02:38:47;;;;;;;19.77;11.20;;;;;;;;;;5039092;28;20044;-76
2023/02/13 02:41:40;;;;;;;17.80;11.73;;;;;;;;;;5022110;28;20112;-76
2023/02/13 02:44:15;;;;;;;19.10;11.77;;;;;;;;;;5034643;28;20144;-76
2023/02/13 02:49:58;;;;;;;19.35;11.45;;;;;;;;;;5034357;28;20037;-76
2023/02/13 02:52:28;;;;;;;19.27;11.77;;;;;;;;;;5044968;28;20029;-77
2023/02/13 02:55:06;;;;;;;17.93;11.97;;;;;;;;;;5050111;28;20047;-77
2023/02/13 03:06:12;;;;;;;17.00;11.40;;;;;;;;;;5029462;28;20090;-76
2023/02/13 03:14:11;;;;;;;17.77;11.67;;;;;;;;;;5036828;28;20109;-76
2023/02/13 03:22:38;;;;;;;17.87;12.00;;;;;;;;;;5031505;28;20091;-77
2023/02/13 03:25:04;;;;;;;18.03;11.70;;;;;;;;;;5034087;28;20026;-76
2023/02/13 03:30:31;;;;;;;18.10;11.37;;;;;;;;;;5046627;28;20040;-75
2023/02/13 03:33:06;;;;;;;18.27;11.27;;;;;;;;;;5034118;28;20112;-76
2023/02/13 03:38:35;;;;;;;18.27;12.43;;;;;;;;;;5016690;28;20065;-76
2023/02/13 03:41:20;;;;;;;17.57;12.40;;;;;;;;;;5062181;28;20033;-76
2023/02/13 03:43:54;;;;;;;21.03;12.53;;;;;;;;;;5061484;28;20029;-76
2023/02/13 03:46:21;;;;;;;19.20;12.63;;;;;;;;;;5036612;28;20097;-76
2023/02/13 03:51:35;;;;;;;19.10;13.03;;;;;;;;;;5042829;28;20052;-76
2023/02/13 03:54:04;;;;;;;20.67;12.37;;;;;;;;;;5042033;28;20036;-76
2023/02/13 03:59:20;;;;;;;18.20;12.47;;;;;;;;;;5039121;28;20095;-77
2023/02/13 04:01:49;;;;;;;19.10;13.33;;;;;;;;;;5053955;28;20335;-76
2023/02/13 04:04:18;;;;;;;18.97;13.30;;;;;;;;;;5037836;28;20045;-76
2023/02/13 04:06:44;;;;;;;19.20;11.93;;;;;;;;;;5046470;28;20104;-76
2023/02/13 04:09:12;;;;;;;18.37;12.87;;;;;;;;;;5036792;28;20441;-76
2023/02/13 04:11:42;;;;;;;17.00;12.63;;;;;;;;;;5037801;28;20446;-76
2023/02/13 04:14:11;;;;;;;19.27;13.60;;;;;;;;;;5038037;28;20017;-76
2023/02/13 04:16:39;;;;;;;19.77;13.70;;;;;;;;;;5046403;28;20029;-76
2023/02/13 04:19:06;;;;;;;21.43;14.93;;;;;;;;;;5038487;28;20450;-75
2023/02/13 04:21:33;;;;;;;21.20;14.23;;;;;;;;;;5041864;28;20034;-75
2023/02/13 04:23:59;;;;;;;21.83;14.97;;;;;;;;;;5042471;28;20021;-76
2023/02/13 04:26:28;;;;;;;19.17;13.37;;;;;;;;;;5026304;28;20029;-76
2023/02/13 04:28:54;;;;;;;21.17;15.10;;;;;;;;;;5028602;28;20029;-76
2023/02/13 04:31:20;;;;;;;20.20;14.33;;;;;;;;;;5042641;28;20065;-75
2023/02/13 04:33:46;;;;;;;22.53;14.63;;;;;;;;;;5026739;28;20533;-76
2023/02/13 04:36:12;;;;;;;22.27;15.17;;;;;;;;;;5043827;28;20036;-76
2023/02/13 04:38:38;;;;;;;23.63;15.53;;;;;;;;;;5043002;28;20034;-76
2023/02/13 04:41:04;;;;;;;22.50;15.90;;;;;;;;;;5041262;28;20126;-75
2023/02/13 04:43:30;;;;;;;22.33;15.10;;;;;;;;;;5027253;28;20029;-75
2023/02/13 04:45:56;;;;;;;20.00;14.53;;;;;;;;;;5041715;28;20048;-76
2023/02/13 04:48:22;;;;;;;25.83;16.13;;;;;;;;;;5043527;28;20516;-76
2023/02/13 04:50:48;;;;;;;25.23;16.00;;;;;;;;;;5026285;28;20026;-75
2023/02/13 04:53:16;;;;;;;24.23;16.40;;;;;;;;;;5040897;28;20038;-76
2023/02/13 04:55:42;;;;;;;23.67;16.47;;;;;;;;;;5026978;28;20048;-75
2023/02/13 04:58:08;;;;;;;26.80;16.63;;;;;;;;;;5026110;28;20042;-77
2023/02/13 05:00:37;;;;;;;23.83;15.90;;;;;;;;;;5040692;28;20041;-75
2023/02/13 05:03:10;;;;;;;24.83;16.60;;;;;;;;;;5043429;28;20044;-76
2023/02/13 05:05:37;;;;;;;24.73;16.50;;;;;;;;;;5044541;28;20029;-76
2023/02/13 05:08:03;;;;;;;24.73;16.83;;;;;;;;;;5043265;28;20060;-76
2023/02/13 05:10:29;;;;;;;27.00;17.47;;;;;;;;;;5027394;28;21613;-75
2023/02/13 05:12:55;;;;;;;25.10;16.67;;;;;;;;;;5026416;28;20071;-74
2023/02/13 05:15:22;;;;;;;27.13;17.93;;;;;;;;;;5027666;28;20829;-76
2023/02/13 05:17:48;;;;;;;30.33;18.40;;;;;;;;;;5045797;28;20121;-76
2023/02/13 05:20:15;;;;;;;29.33;18.70;;;;;;;;;;5043361;28;20055;-75
2023/02/13 05:25:33;;;;;;;29.13;18.40;;;;;;;;;;5025835;28;20045;-76
2023/02/13 05:27:59;;;;;;;29.33;18.50;;;;;;;;;;5028538;28;20026;-75
2023/02/13 05:30:27;;;;;;;30.27;19.57;;;;;;;;;;5049103;28;20033;-76
2023/02/13 05:32:53;;;;;;;32.33;19.27;;;;;;;;;;5043591;28;20033;-75
2023/02/13 05:35:20;;;;;;;33.27;20.20;;;;;;;;;;5027390;28;20458;-74
2023/02/13 05:37:46;;;;;;;29.57;19.57;;;;;;;;;;5026270;28;20033;-76
2023/02/13 05:40:13;;;;;;;32.93;19.80;;;;;;;;;;5033756;28;20608;-76
2023/02/13 05:42:39;;;;;;;31.97;20.47;;;;;;;;;;5043814;28;20044;-74
2023/02/13 05:45:06;;;;;;;34.13;20.40;;;;;;;;;;5027460;28;20025;-75
2023/02/13 05:47:34;;;;;;;32.43;21.17;;;;;;;;;;5026778;28;20069;-75
2023/02/13 05:50:00;;;;;;;38.87;22.37;;;;;;;;;;5027540;28;20029;-75
2023/02/13 05:52:28;;;;;;;36.07;21.20;;;;;;;;;;5039234;28;20048;-75
2023/02/13 05:54:54;;;;;;;37.37;22.03;;;;;;;;;;5031407;28;20026;-75
2023/02/13 05:57:20;;;;;;;34.03;21.50;;;;;;;;;;5028933;28;20034;-75
2023/02/13 05:59:46;;;;;;;34.40;21.73;;;;;;;;;;5039296;28;20038;-75
2023/02/13 06:02:12;;;;;;;38.30;21.47;;;;;;;;;;5042595;28;20025;-75
2023/02/13 06:04:38;;;;;;;39.47;23.07;;;;;;;;;;5040650;28;20136;-75
2023/02/13 06:07:04;;;;;;;40.50;23.47;;;;;;;;;;5040242;28;20025;-76
2023/02/13 06:09:30;;;;;;;41.63;23.73;;;;;;;;;;5025993;28;20029;-76
2023/02/13 06:11:56;;;;;;;38.90;23.07;;;;;;;;;;5041266;28;20040;-75
2023/02/13 06:14:22;;;;;;;40.30;23.90;;;;;;;;;;5041744;28;20022;-75
2023/02/13 06:16:48;;;;;;;43.90;24.47;;;;;;;;;;5024407;28;20098;-76
2023/02/13 06:19:14;;;;;;;42.53;24.17;;;;;;;;;;5029530;28;20108;-76
2023/02/13 06:21:40;;;;;;;44.10;25.03;;;;;;;;;;5043446;28;20080;-76
2023/02/13 06:24:06;;;;;;;42.50;24.70;;;;;;;;;;5027278;28;20033;-74
2023/02/13 06:26:33;;;;;;;39.20;23.77;;;;;;;;;;5040101;28;20419;-75
2023/02/13 06:28:59;;;;;;;40.40;24.10;;;;;;;;;;5024049;28;20092;-76
2023/02/13 06:31:25;;;;;;;45.30;25.40;;;;;;;;;;5047249;28;20033;-75
2023/02/13 06:33:51;;;;;;;40.73;23.60;;;;;;;;;;5043417;28;20037;-76
2023/02/13 06:36:19;;;;;;;37.83;22.77;;;;;;;;;;5041160;28;20029;-76
2023/02/13 06:38:45;;;;;;;46.57;25.70;;;;;;;;;;5028071;28;20976;-76
2023/02/13 06:41:11;;;;;;;40.83;23.27;;;;;;;;;;5028030;28;20048;-77
2023/02/13 06:43:37;;;;;;;38.60;23.23;;;;;;;;;;5027418;28;20512;-75
2023/02/13 06:46:07;;;;;;;43.03;24.00;;;;;;;;;;5023587;28;20033;-76
2023/02/13 06:48:33;;;;;;;42.00;22.57;;;;;;;;;;5040695;28;20030;-75
2023/02/13 06:51:00;;;;;;;39.97;23.00;;;;;;;;;;5044262;28;20037;-76
2023/02/13 06:53:26;;;;;;;40.23;22.77;;;;;;;;;;5025342;28;20068;-75
2023/02/13 06:55:53;;;;;;;42.27;23.33;;;;;;;;;;5025959;28;20061;-75
2023/02/13 06:58:19;;;;;;;38.23;23.00;;;;;;;;;;5025108;28;20095;-75
2023/02/13 07:00:48;;;;;;;44.30;23.83;;;;;;;;;;5039093;28;20132;-75
2023/02/13 07:03:17;;;;;;;42.27;23.10;;;;;;;;;;5019687;28;20029;-76
2023/02/13 07:05:46;;;;;;;44.10;23.43;;;;;;;;;;5039237;28;20033;-75
2023/02/13 07:08:12;;;;;;;41.23;23.67;;;;;;;;;;5039553;28;20025;-75
2023/02/13 07:10:39;;;;;;;40.87;23.57;;;;;;;;;;5022438;28;20034;-75
2023/02/13 07:13:33;;;;;;;40.33;22.40;;;;;;;;;;5039734;28;20029;-76
2023/02/13 07:16:02;;;;;;;33.57;21.37;;;;;;;;;;5025532;28;20103;-76
2023/02/13 07:18:31;;;;;;;36.73;20.93;;;;;;;;;;5044009;28;20029;-76
2023/02/13 07:20:57;;;;;;;35.27;22.07;;;;;;;;;;5044431;28;20029;-75
2023/02/13 07:23:23;;;;;;;37.97;22.43;;;;;;;;;;5026742;28;20018;-76
2023/02/13 07:25:49;;;;;;;35.23;22.00;;;;;;;;;;5026156;28;20036;-74
2023/02/13 07:28:15;;;;;;;34.63;22.20;;;;;;;;;;5044272;28;20541;-76
2023/02/13 07:30:41;;;;;;;32.97;20.50;;;;;;;;;;5027760;28;20091;-75
2023/02/13 07:33:07;;;;;;;35.03;21.90;;;;;;;;;;5045694;28;20409;-76
2023/02/13 07:35:37;;;;;;;33.40;20.33;;;;;;;;;;5032022;28;20036;-74
2023/02/13 07:38:03;;;;;;;32.17;19.83;;;;;;;;;;5044459;28;20127;-76
2023/02/13 07:40:29;;;;;;;30.83;19.50;;;;;;;;;;5029640;28;20065;-77
2023/02/13 07:42:56;;;;;;;30.70;18.43;;;;;;;;;;5030411;28;20070;-76
2023/02/13 07:45:24;;;;;;;28.90;17.73;;;;;;;;;;5028932;28;20034;-77
2023/02/13 07:47:50;;;;;;;27.80;17.20;;;;;;;;;;5044550;28;20030;-76
2023/02/13 07:50:17;;;;;;;28.90;18.37;;;;;;;;;;5045541;28;20163;-76
2023/02/13 07:52:43;;;;;;;31.13;18.00;;;;;;;;;;5028526;28;20116;-76
2023/02/13 07:55:10;;;;;;;28.83;17.57;;;;;;;;;;5045153;28;20045;-76
2023/02/13 07:57:36;;;;;;;30.07;18.50;;;;;;;;;;5042617;28;20358;-76
2023/02/13 08:00:02;;;;;;;33.80;19.33;;;;;;;;;;5028479;28;20071;-76
2023/02/13 08:02:28;;;;;;;28.27;17.83;;;;;;;;;;5043462;28;20124;-76
2023/02/13 08:04:56;;;;;;;32.00;18.20;;;;;;;;;;5045516;28;20116;-77
2023/02/13 08:07:22;;;;;;;26.03;17.43;;;;;;;;;;5044064;28;20083;-77
2023/02/13 08:12:35;;;;;;;24.87;16.23;;;;;;;;;;5030886;28;20088;-77
2023/02/13 08:15:01;;;;;;;27.33;17.17;;;;;;;;;;5041914;28;20562;-77
2023/02/13 08:17:27;;;;;;;26.40;16.27;;;;;;;;;;5043403;28;20033;-76
2023/02/13 08:19:53;;;;;;;25.93;17.13;;;;;;;;;;5027617;28;20064;-77
2023/02/13 08:22:19;;;;;;;26.27;16.97;;;;;;;;;;5043301;28;20034;-76
2023/02/13 08:24:46;;;;;;;26.13;17.10;;;;;;;;;;5031234;28;20036;-77
2023/02/13 08:27:12;;;;;;;26.43;16.03;;;;;;;;;;5029584;28;20120;-77
2023/02/13 08:29:38;;;;;;;22.93;15.03;;;;;;;;;;5045124;28;20060;-77
2023/02/13 08:32:04;;;;;;;26.23;16.53;;;;;;;;;;5028663;28;20049;-77
2023/02/13 08:34:30;;;;;;;20.97;14.37;;;;;;;;;;5045090;28;20061;-76
2023/02/13 08:36:56;;;;;;;22.77;14.53;;;;;;;;;;5043110;28;20080;-76
2023/02/13 08:39:22;;;;;;;26.47;14.87;;;;;;;;;;5046060;28;20025;-77
2023/02/13 08:41:51;;;;;;;22.37;14.27;;;;;;;;;;5045549;28;20049;-76
2023/02/13 08:44:17;;;;;;;22.93;14.60;;;;;;;;;;5053002;28;20088;-77
2023/02/13 08:46:42;;;;;;;24.37;15.67;;;;;;;;;;5036209;28;20522;-79
2023/02/13 08:49:08;;;;;;;21.67;14.70;;;;;;;;;;5036777;28;20053;-79
2023/02/13 08:51:34;;;;;;;27.57;14.83;;;;;;;;;;5050701;28;20493;-78
2023/02/13 08:54:00;;;;;;;23.87;14.43;;;;;;;;;;5044255;28;20029;-76
2023/02/13 08:56:26;;;;;;;24.27;14.40;;;;;;;;;;5039877;28;20125;-76
2023/02/13 08:58:53;;;;;;;19.57;13.10;;;;;;;;;;5035803;28;20751;-76
2023/02/13 09:01:19;;;;;;;23.70;14.07;;;;;;;;;;5052086;28;20358;-77
2023/02/13 09:03:45;;;;;;;26.53;16.57;;;;;;;;;;5037799;28;20022;-77
2023/02/13 09:06:11;;;;;;;21.37;14.03;;;;;;;;;;5040076;28;20072;-77
2023/02/13 09:08:37;;;;;;;20.70;14.13;;;;;;;;;;5053595;28;20072;-77
2023/02/13 09:11:06;;;;;;;22.80;14.63;;;;;;;;;;5039642;28;20029;-76
2023/02/13 09:13:33;;;;;;;26.90;14.20;;;;;;;;;;5052646;28;20029;-77
2023/02/13 09:16:00;;;;;;;24.83;15.53;;;;;;;;;;5038693;28;20021;-77
2023/02/13 09:18:26;;;;;;;22.90;14.47;;;;;;;;;;5055410;28;20025;-76
2023/02/13 09:20:57;;;;;;;18.57;13.27;;;;;;;;;;5047316;28;20029;-77
2023/02/13 09:23:23;;;;;;;19.00;13.60;;;;;;;;;;5043664;28;20026;-77
2023/02/13 09:25:49;;;;;;;23.37;14.17;;;;;;;;;;5035744;28;20095;-77
2023/02/13 09:28:15;;;;;;;23.93;14.73;;;;;;;;;;5042231;28;20025;-75
2023/02/13 09:30:41;;;;;;;21.53;13.60;;;;;;;;;;5059698;28;20025;-77
2023/02/13 09:33:10;;;;;;;21.77;13.60;;;;;;;;;;5043206;28;20382;-75
2023/02/13 09:35:36;;;;;;;18.90;12.83;;;;;;;;;;5044964;28;20041;-77
2023/02/13 09:38:02;;;;;;;22.43;13.73;;;;;;;;;;5040566;28;20036;-77
2023/02/13 09:40:35;;;;;;;20.23;13.10;;;;;;;;;;5035001;28;20022;-76
2023/02/13 09:43:05;;;;;;;23.50;13.60;;;;;;;;;;5049782;28;20033;-76
2023/02/13 09:45:31;;;;;;;21.90;13.50;;;;;;;;;;5052856;28;20033;-76
2023/02/13 09:47:57;;;;;;;20.47;13.80;;;;;;;;;;5071205;28;20029;-76
2023/02/13 09:50:26;;;;;;;21.70;13.20;;;;;;;;;;5045777;28;20033;-76
2023/02/13 09:52:53;;;;;;;21.00;13.03;;;;;;;;;;5042058;28;20064;-76
2023/02/13 09:55:22;;;;;;;19.93;12.93;;;;;;;;;;5054105;28;20044;-78
2023/02/13 09:57:48;;;;;;;21.33;13.03;;;;;;;;;;5040706;28;20095;-78
2023/02/13 10:00:17;;;;;;;24.00;14.23;;;;;;;;;;5035834;28;20033;-79
2023/02/13 10:02:58;;;;;;;20.80;14.00;;;;;;;;;;5034375;28;20057;-76
2023/02/13 10:05:24;;;;;;;21.43;14.27;;;;;;;;;;5034593;28;20026;-76
2023/02/13 10:08:09;;;;;;;19.90;13.47;;;;;;;;;;5034393;28;20018;-76
2023/02/13 10:10:54;;;;;;;21.07;13.90;;;;;;;;;;5039568;28;20036;-76
2023/02/13 10:13:35;;;;;;;20.77;13.77;;;;;;;;;;5048274;28;20094;-76
2023/02/13 10:16:09;;;;;;;21.30;12.53;;;;;;;;;;5041871;28;20033;-79
2023/02/13 10:18:44;;;;;;;22.87;11.97;;;;;;;;;;5039621;28;20025;-78
2023/02/13 10:21:11;;;;;;;18.00;10.97;;;;;;;;;;5041875;28;20052;-78
2023/02/13 10:23:42;;;;;;;20.73;12.97;;;;;;;;;;5024000;28;20525;-79
2023/02/13 10:26:12;;;;;;;17.93;12.67;;;;;;;;;;5044262;28;20104;-78
2023/02/13 10:28:42;;;;;;;19.77;12.87;;;;;;;;;;5041006;28;20034;-77
2023/02/13 10:31:19;;;;;;;18.97;11.27;;;;;;;;;;5023917;28;20029;-79
2023/02/13 10:33:54;;;;;;;17.60;10.87;;;;;;;;;;5039769;28;20176;-75
2023/02/13 10:36:23;;;;;;;20.27;11.70;;;;;;;;;;5040982;28;20072;-76
2023/02/13 10:38:55;;;;;;;18.93;11.53;;;;;;;;;;5026385;28;20625;-76
2023/02/13 10:41:21;;;;;;;17.77;11.23;;;;;;;;;;5024188;28;20873;-76
2023/02/13 10:44:05;;;;;;;17.27;11.63;;;;;;;;;;5027900;28;20463;-76
2023/02/13 10:46:51;;;;;;;17.57;11.73;;;;;;;;;;5041696;28;20037;-77
2023/02/13 10:49:16;;;;;;;15.90;10.90;;;;;;;;;;5041676;28;20040;-76
2023/02/13 10:51:51;;;;;;;17.70;10.43;;;;;;;;;;5041280;28;20032;-77
2023/02/13 10:54:19;;;;;;;18.63;11.23;;;;;;;;;;5041284;28;20460;-76
2023/02/13 10:56:48;;;;;;;18.27;12.10;;;;;;;;;;5041800;28;20061;-76
2023/02/13 10:59:17;;;;;;;17.27;10.57;;;;;;;;;;5039822;28;20045;-76
2023/02/13 11:01:49;;;;;;;16.23;10.23;;;;;;;;;;5041074;28;20021;-77
2023/02/13 11:04:17;;;;;;;17.75;10.00;;;;;;;;;;5041275;28;20026;-77
2023/02/13 11:07:03;;;;;;;15.50;10.20;;;;;;;;;;5038937;28;20040;-76
2023/02/13 11:09:32;;;;;;;16.87;10.20;;;;;;;;;;5041539;28;20034;-77
2023/02/13 11:12:00;;;;;;;16.97;10.83;;;;;;;;;;5042628;28;20026;-76
2023/02/13 11:14:26;;;;;;;16.33;9.77;;;;;;;;;;5041255;28;20069;-77
2023/02/13 11:16:54;;;;;;;15.73;10.50;;;;;;;;;;5025811;28;20033;-76
2023/02/13 11:19:23;;;;;;;15.60;9.90;;;;;;;;;;5025372;28;20061;-77
2023/02/13 11:21:53;;;;;;;15.17;9.27;;;;;;;;;;5037902;28;20168;-76
2023/02/13 11:24:21;;;;;;;14.70;10.03;;;;;;;;;;5040425;28;20142;-76
2023/02/13 11:26:50;;;;;;;17.40;10.53;;;;;;;;;;5038708;28;20022;-75
2023/02/13 11:29:20;;;;;;;16.70;9.43;;;;;;;;;;5024607;28;20563;-76
2023/02/13 11:31:46;;;;;;;16.93;8.57;;;;;;;;;;5026402;28;20029;-76
2023/02/13 11:34:21;;;;;;;16.60;8.43;;;;;;;;;;5042658;28;20040;-77
2023/02/13 11:36:51;;;;;;;16.17;8.63;;;;;;;;;;5029935;28;20470;-76
2023/02/13 11:39:21;;;;;;;13.40;9.17;;;;;;;;;;5025360;28;20458;-76
2023/02/13 11:41:49;;;;;;;13.70;8.50;;;;;;;;;;5037752;28;20025;-76
2023/02/13 11:44:42;;;;;;;17.53;9.53;;;;;;;;;;5040012;28;20065;-78
2023/02/13 11:47:08;;;;;;;16.83;10.57;;;;;;;;;;5025468;28;20037;-76
2023/02/13 11:49:35;;;;;;;13.70;8.53;;;;;;;;;;5041428;28;20025;-78
2023/02/13 11:52:02;;;;;;;12.47;7.83;;;;;;;;;;5040983;28;20033;-77
2023/02/13 11:54:42;;;;;;;13.43;7.63;;;;;;;;;;5025416;28;20030;-77
2023/02/13 11:57:20;;;;;;;11.17;7.10;;;;;;;;;;5040221;28;20032;-77
2023/02/13 11:59:47;;;;;;;16.47;8.13;;;;;;;;;;5038849;28;20029;-76
2023/02/13 12:02:16;;;;;;;11.57;7.63;;;;;;;;;;5044085;28;20057;-76
2023/02/13 12:04:43;;;;;;;14.47;8.23;;;;;;;;;;5042602;28;20026;-77
2023/02/13 12:07:09;;;;;;;12.77;8.53;;;;;;;;;;5048001;28;20076;-77
2023/02/13 12:09:38;;;;;;;11.10;7.87;;;;;;;;;;5034341;28;20037;-77
2023/02/13 12:12:05;;;;;;;12.07;6.73;;;;;;;;;;5030555;28;20033;-77
2023/02/13 12:14:35;;;;;;;14.97;8.07;;;;;;;;;;5045036;28;20043;-77
2023/02/13 12:17:10;;;;;;;12.20;7.43;;;;;;;;;;5049058;28;20528;-75
2023/02/13 12:19:48;;;;;;;13.13;7.20;;;;;;;;;;5043462;28;20033;-77
2023/02/13 12:22:21;;;;;;;13.57;6.87;;;;;;;;;;5026242;28;20033;-77
2023/02/13 12:24:59;;;;;;;13.17;7.00;;;;;;;;;;5044191;28;20041;-77
2023/02/13 12:27:44;;;;;;;10.00;5.97;;;;;;;;;;5043993;28;20595;-78
2023/02/13 12:30:28;;;;;;;8.93;6.00;;;;;;;;;;5032282;28;20038;-76
2023/02/13 12:32:54;;;;;;;13.60;6.70;;;;;;;;;;5045874;28;20196;-76
2023/02/13 12:35:26;;;;;;;11.23;6.47;;;;;;;;;;5042990;28;20537;-77
2023/02/13 12:38:11;;;;;;;11.30;6.25;;;;;;;;;;5025171;28;20040;-77
2023/02/13 12:40:43;;;;;;;7.60;5.87;;;;;;;;;;5045146;28;20033;-77
2023/02/13 12:43:09;;;;;;;10.15;5.93;;;;;;;;;;5043756;28;20482;-77
2023/02/13 12:45:54;;;;;;;7.83;5.37;;;;;;;;;;5041937;28;20025;-75
2023/02/13 12:48:38;;;;;;;8.93;5.43;;;;;;;;;;5045369;28;20037;-76
2023/02/13 12:51:11;;;;;;;8.40;5.17;;;;;;;;;;5042970;28;20053;-76
2023/02/13 12:53:40;;;;;;;7.85;5.50;;;;;;;;;;5042770;28;20657;-77
2023/02/13 12:56:18;;;;;;;5.73;4.40;;;;;;;;;;5043284;28;20488;-76
2023/02/13 12:59:02;;;;;;;17.13;5.30;;;;;;;;;;5026003;28;20037;-76
2023/02/13 13:01:31;;;;;;;6.57;4.77;;;;;;;;;;5027600;28;20033;-76
2023/02/13 13:04:08;;;;;;;11.70;5.13;;;;;;;;;;5042938;28;20089;-77
2023/02/13 13:06:55;;;;;;;6.00;4.33;;;;;;;;;;5024192;28;20115;-76
2023/02/13 13:09:40;;;;;;;7.63;4.97;;;;;;;;;;5041194;28;20092;-77
2023/02/13 13:12:09;;;;;;;11.73;4.97;;;;;;;;;;5044589;28;21735;-74
2023/02/13 13:14:56;;;;;;;11.67;5.57;;;;;;;;;;5028184;28;20078;-76
2023/02/13 13:17:28;;;;;;;8.80;5.10;;;;;;;;;;5028594;28;20458;-76
2023/02/13 13:20:13;;;;;;;12.50;4.45;;;;;;;;;;5040788;28;20108;-77
2023/02/13 13:22:42;;;;;;;5.93;4.20;;;;;;;;;;5028662;28;20097;-77
2023/02/13 13:25:10;;;;;;;7.27;4.80;;;;;;;;;;5044359;28;20132;-77
2023/02/13 13:27:43;;;;;;;8.10;3.53;;;;;;;;;;5041306;28;20467;-77
2023/02/13 13:30:08;;;;;;;;;;;;;;;;;;5043065;28;20025;-76
2023/02/13 13:32:36;;;;;;;6.00;4.03;;;;;;;;;;5025451;28;20700;-77
2023/02/13 13:35:02;;;;;;;18.50;3.77;;;;;;;;;;5045425;28;20041;-77
2023/02/13 13:37:31;;;;;;;5.63;3.72;;;;;;;;;;5041884;28;21685;-75
2023/02/13 13:40:00;;;;;;;5.13;3.38;;;;;;;;;;5025530;28;20158;-77
2023/02/13 13:42:38;;;;;;;6.13;3.00;;;;;;;;;;5026202;28;20093;-78
2023/02/13 13:45:38;;;;;;;4.97;3.45;;;;;;;;;;5042647;28;20037;-78
2023/02/13 13:48:17;;;;;;;6.72;4.03;;;;;;;;;;5028947;28;20926;-77
2023/02/13 13:50:44;;;;;;;7.70;3.10;;;;;;;;;;5043296;28;20179;-77
2023/02/13 13:53:12;;;;;;;5.97;3.55;;;;;;;;;;5045476;28;20033;-76
2023/02/13 13:55:47;;;;;;;4.40;2.53;;;;;;;;;;5041562;28;20048;-77
2023/02/13 13:58:22;;;;;;;8.30;2.67;;;;;;;;;;5026459;28;20029;-76
2023/02/13 14:01:15;;;;;;;3.33;2.30;;;;;;;;;;5042232;28;20037;-77
2023/02/13 14:03:43;;;;;;;4.95;2.47;;;;;;;;;;5044303;28;20410;-77
2023/02/13 14:06:28;;;;;;;6.30;2.70;;;;;;;;;;5027130;28;20026;-77
2023/02/13 14:09:02;;;;;;;4.15;2.10;;;;;;;;;;5025451;28;20059;-77
2023/02/13 14:11:28;;;;;;;3.85;2.42;;;;;;;;;;5040427;28;20066;-77
2023/02/13 14:13:54;;;;;;;2.85;1.52;;;;;;;;;;5040431;28;20033;-77
2023/02/13 14:16:40;;;;;;;5.40;1.60;;;;;;;;;;5041800;28;20085;-76
2023/02/13 14:19:22;;;;;;;3.97;2.13;;;;;;;;;;5038834;28;20056;-77
2023/02/13 14:21:48;;;;;;;4.95;1.88;;;;;;;;;;5026979;28;20093;-78
2023/02/13 14:24:14;;;;;;;2.45;1.40;;;;;;;;;;5041508;28;20163;-78
2023/02/13 14:26:40;;;;;;;3.55;1.98;;;;;;;;;;5042895;28;20029;-77
2023/02/13 14:29:09;;;;;;;2.72;1.65;;;;;;;;;;5042382;28;20025;-77
2023/02/13 14:31:40;;;;;;;5.07;2.60;;;;;;;;;;5041811;28;20057;-77
2023/02/13 14:34:18;;;;;;;2.83;1.70;;;;;;;;;;5041888;28;20025;-76
2023/02/13 14:36:48;;;;;;;15.63;3.65;;;;;;;;;;5027662;28;20084;-77
2023/02/13 14:39:20;;;;;;;4.75;2.85;;;;;;;;;;5026320;28;20347;-77
2023/02/13 14:41:49;;;;;;;3.17;1.50;;;;;;;;;;5043702;28;20044;-78
2023/02/13 14:44:18;;;;;;;5.13;1.70;;;;;;;;;;5050654;28;20029;-77
2023/02/13 14:46:45;;;;;;;2.83;1.33;;;;;;;;;;5035128;28;20060;-78
2023/02/13 14:49:15;;;;;;;2.83;1.83;;;;;;;;;;5034656;28;20044;-77
2023/02/13 14:51:45;;;;;;;5.97;1.50;;;;;;;;;;5034095;28;20075;-77
2023/02/13 14:54:17;;;;;;;5.32;1.67;;;;;;;;;;5034900;28;20033;-77
2023/02/13 14:56:46;;;;;;;6.85;1.63;;;;;;;;;;5035300;28;20076;-77
2023/02/13 14:59:16;;;;;;;2.33;1.13;;;;;;;;;;5035221;28;20040;-78
2023/02/13 15:01:55;;;;;;;2.10;1.27;;;;;;;;;;5039298;28;20053;-77
2023/02/13 15:04:24;;;;;;;4.57;1.42;;;;;;;;;;5043685;28;20029;-78
2023/02/13 15:06:50;;;;;;;7.95;1.63;;;;;;;;;;5053953;28;20048;-78
2023/02/13 15:09:23;;;;;;;7.63;1.65;;;;;;;;;;5055151;28;20025;-78
2023/02/13 15:11:49;;;;;;;6.05;1.60;;;;;;;;;;5028006;28;20029;-78
2023/02/13 15:14:32;;;;;;;11.30;2.05;;;;;;;;;;5037125;28;20025;-78
2023/02/13 15:16:58;;;;;;;;;;;;;;;;;;5038529;28;20445;-78